EAG5502 EDDF-SBGR
Flight info
| Callsign | EAG5502 |
|---|---|
| Flight time | N/A |
| Altitude | 30000 |
| Route | SOBRA7D SOBRA Y180 DIK UN857 TOLVU/N0490F290 DCT RAPOR DCT GIMER DCT ESTOC DCT PON UN872 GODIX/N0486F310 UN872 DIDAK DCT NTS DCT LOTEE DCT STG DCT DEMOS/N0446F230 UN741 SNT/N0455F240 UN741 NELSO/N0488F330 N741 ERONI/N0490F340 N741 EDUMO UN741 GAMBA/N0496F350 UN741 PINRU/N0495F360 UN741 ERUGU UZ61 OBGIP/N0492F380 UZ61 REDAD UZ21 VUNOX |
| Aircraft | MD11/H-SDE1E2E3FGHIJ2J3J4J5M1RWXY/LB1D1 |
Departure
| Time | 2026-04-18 03:35 |
|---|---|
| Airport | Frankfurt Main Airport (EDDF) |
Arrival
| Time | N/A |
|---|---|
| Airport | São Paulo/Guarulhos–Governor André Franco Montoro International Airport (SBGR) |
| Time | Latitude | Longitude | Altitude | Speed | Heading |
|---|---|---|---|---|---|
| 2026-04-18 03:19 | 50.05071 | 8.58743 | 369 ft | 0 kts | 340° |
| 2026-04-18 03:26 | 50.05058 | 8.58751 | 370 ft | 4 kts | 338° |
| 2026-04-18 03:26 | 50.05033 | 8.58768 | 367 ft | 4 kts | 331° |
| 2026-04-18 03:26 | 50.05010 | 8.58791 | 369 ft | 4 kts | 320° |
| 2026-04-18 03:26 | 50.04993 | 8.58820 | 367 ft | 4 kts | 287° |
| 2026-04-18 03:27 | 50.04992 | 8.58842 | 367 ft | 0 kts | 249° |
| 2026-04-18 03:29 | 50.04983 | 8.58807 | 371 ft | 12 kts | 250° |
| 2026-04-18 03:30 | 50.04969 | 8.58737 | 370 ft | 0 kts | 254° |
| 2026-04-18 03:30 | 50.04969 | 8.58736 | 370 ft | 0 kts | 254° |
| 2026-04-18 03:30 | 50.04959 | 8.58696 | 374 ft | 0 kts | 243° |
| 2026-04-18 03:31 | 50.04958 | 8.58693 | 374 ft | 2 kts | 242° |
| 2026-04-18 03:31 | 50.04947 | 8.58677 | 371 ft | 2 kts | 220° |
| 2026-04-18 03:32 | 50.04932 | 8.58668 | 372 ft | 2 kts | 195° |
| 2026-04-18 03:32 | 50.04915 | 8.58669 | 372 ft | 3 kts | 175° |
| 2026-04-18 03:32 | 50.04883 | 8.58687 | 375 ft | 8 kts | 158° |
| 2026-04-18 03:32 | 50.04814 | 8.58728 | 375 ft | 12 kts | 160° |
| 2026-04-18 03:33 | 50.04781 | 8.58747 | 376 ft | 0 kts | 160° |
| 2026-04-18 03:33 | 50.04755 | 8.58759 | 378 ft | 10 kts | 166° |
| 2026-04-18 03:33 | 50.04680 | 8.58762 | 377 ft | 13 kts | 183° |
| 2026-04-18 03:33 | 50.04580 | 8.58705 | 378 ft | 18 kts | 208° |
| 2026-04-18 03:34 | 50.04479 | 8.58552 | 378 ft | 24 kts | 243° |
| 2026-04-18 03:34 | 50.04357 | 8.58040 | 375 ft | 80 kts | 249° |
| 2026-04-18 03:34 | 50.04094 | 8.56941 | 371 ft | 136 kts | 249° |
| 2026-04-18 03:34 | 50.03697 | 8.55287 | 360 ft | 189 kts | 249° |
| 2026-04-18 03:35 | 50.03209 | 8.53261 | 606 ft | 205 kts | 249° |
| 2026-04-18 03:35 | 50.02615 | 8.51270 | 1350 ft | 199 kts | 233° |
| 2026-04-18 03:35 | 50.01560 | 8.49896 | 1981 ft | 200 kts | 204° |
| 2026-04-18 03:35 | 50.00248 | 8.49115 | 2455 ft | 204 kts | 199° |
| 2026-04-18 03:36 | 49.98902 | 8.48413 | 2965 ft | 205 kts | 199° |
| 2026-04-18 03:36 | 49.97552 | 8.47705 | 3470 ft | 206 kts | 199° |
| 2026-04-18 03:36 | 49.96155 | 8.46961 | 3701 ft | 220 kts | 199° |
| 2026-04-18 03:36 | 49.94663 | 8.46157 | 3975 ft | 229 kts | 200° |
| 2026-04-18 03:37 | 49.93231 | 8.45093 | 4359 ft | 230 kts | 217° |
| 2026-04-18 03:37 | 49.91977 | 8.43466 | 4531 ft | 241 kts | 223° |
| 2026-04-18 03:37 | 49.90726 | 8.41649 | 4647 ft | 252 kts | 224° |
| 2026-04-18 03:37 | 49.89424 | 8.39719 | 4805 ft | 266 kts | 225° |
| 2026-04-18 03:38 | 49.88054 | 8.37678 | 4920 ft | 283 kts | 225° |
| 2026-04-18 03:38 | 49.86727 | 8.35695 | 5079 ft | 302 kts | 225° |
| 2026-04-18 03:38 | 49.85452 | 8.33792 | 5659 ft | 305 kts | 225° |
| 2026-04-18 03:38 | 49.83916 | 8.31500 | 6409 ft | 307 kts | 225° |
| 2026-04-18 03:39 | 49.82372 | 8.29190 | 7122 ft | 310 kts | 226° |
| 2026-04-18 03:39 | 49.80953 | 8.26678 | 7803 ft | 312 kts | 236° |
| 2026-04-18 03:39 | 49.79938 | 8.23709 | 8502 ft | 314 kts | 252° |
| 2026-04-18 03:39 | 49.79520 | 8.20385 | 9177 ft | 317 kts | 269° |
| 2026-04-18 03:40 | 49.79730 | 8.16973 | 9814 ft | 321 kts | 281° |
| 2026-04-18 03:40 | 49.80247 | 8.13599 | 10389 ft | 327 kts | 285° |
| 2026-04-18 03:40 | 49.80859 | 8.10095 | 10538 ft | 345 kts | 285° |
| 2026-04-18 03:40 | 49.81491 | 8.06489 | 11084 ft | 349 kts | 285° |
| 2026-04-18 03:41 | 49.82112 | 8.02845 | 11677 ft | 351 kts | 284° |
| 2026-04-18 03:41 | 49.82720 | 7.99169 | 12274 ft | 354 kts | 284° |
| 2026-04-18 03:41 | 49.83323 | 7.95446 | 12838 ft | 357 kts | 284° |
| 2026-04-18 03:41 | 49.83921 | 7.91702 | 13408 ft | 359 kts | 284° |
| 2026-04-18 03:42 | 49.84518 | 7.87930 | 13954 ft | 362 kts | 284° |
| 2026-04-18 03:42 | 49.85115 | 7.84133 | 14431 ft | 365 kts | 284° |
| 2026-04-18 03:42 | 49.85708 | 7.80356 | 14888 ft | 367 kts | 284° |
| 2026-04-18 03:42 | 49.86311 | 7.76502 | 15346 ft | 369 kts | 284° |
| 2026-04-18 03:43 | 49.86921 | 7.72615 | 15794 ft | 372 kts | 284° |
| 2026-04-18 03:43 | 49.87526 | 7.68724 | 16268 ft | 373 kts | 284° |
| 2026-04-18 03:43 | 49.88132 | 7.64804 | 16696 ft | 375 kts | 283° |
| 2026-04-18 03:43 | 49.88742 | 7.60851 | 17131 ft | 377 kts | 283° |
| 2026-04-18 03:44 | 49.89353 | 7.56883 | 17550 ft | 380 kts | 283° |
| 2026-04-18 03:44 | 49.89969 | 7.52880 | 17973 ft | 382 kts | 283° |
| 2026-04-18 03:44 | 49.90586 | 7.48861 | 18372 ft | 385 kts | 283° |
| 2026-04-18 03:44 | 49.91208 | 7.44806 | 18731 ft | 387 kts | 283° |
| 2026-04-18 03:45 | 49.91830 | 7.40736 | 19079 ft | 389 kts | 283° |
| 2026-04-18 03:45 | 49.92453 | 7.36649 | 19454 ft | 390 kts | 283° |
| 2026-04-18 03:45 | 49.93078 | 7.32540 | 19783 ft | 392 kts | 283° |
| 2026-04-18 03:45 | 49.93704 | 7.28416 | 20104 ft | 394 kts | 283° |
| 2026-04-18 03:46 | 49.94332 | 7.24267 | 20443 ft | 395 kts | 283° |
| 2026-04-18 03:46 | 49.94960 | 7.20105 | 20766 ft | 397 kts | 283° |
| 2026-04-18 03:46 | 49.95590 | 7.15918 | 21098 ft | 399 kts | 283° |
| 2026-04-18 03:46 | 49.96222 | 7.11710 | 21407 ft | 401 kts | 283° |
| 2026-04-18 03:47 | 49.96855 | 7.07485 | 21734 ft | 403 kts | 283° |
| 2026-04-18 03:47 | 49.97489 | 7.03240 | 22057 ft | 405 kts | 283° |
| 2026-04-18 03:47 | 49.98125 | 6.98968 | 22372 ft | 407 kts | 283° |
| 2026-04-18 03:47 | 49.98762 | 6.94673 | 22711 ft | 409 kts | 283° |
| 2026-04-18 03:48 | 49.99265 | 6.90317 | 22986 ft | 410 kts | 275° |
| 2026-04-18 03:48 | 49.99371 | 6.85883 | 23330 ft | 412 kts | 270° |
| 2026-04-18 03:48 | 49.99273 | 6.81425 | 23695 ft | 413 kts | 268° |
| 2026-04-18 03:48 | 49.99105 | 6.76951 | 24000 ft | 415 kts | 267° |
| 2026-04-18 03:49 | 49.98926 | 6.72466 | 24296 ft | 417 kts | 267° |
| 2026-04-18 03:49 | 49.98759 | 6.68021 | 24605 ft | 418 kts | 267° |
| 2026-04-18 03:49 | 49.98601 | 6.63501 | 24909 ft | 420 kts | 268° |
| 2026-04-18 03:49 | 49.98394 | 6.58965 | 25179 ft | 422 kts | 264° |
| 2026-04-18 03:50 | 49.97842 | 6.54494 | 25469 ft | 423 kts | 255° |
| 2026-04-18 03:50 | 49.96871 | 6.50174 | 25778 ft | 425 kts | 249° |
| 2026-04-18 03:50 | 49.95700 | 6.45944 | 26094 ft | 427 kts | 247° |
| 2026-04-18 03:50 | 49.94466 | 6.41747 | 26406 ft | 428 kts | 246° |
| 2026-04-18 03:51 | 49.93225 | 6.37538 | 26714 ft | 430 kts | 247° |
| 2026-04-18 03:51 | 49.91993 | 6.33304 | 27075 ft | 430 kts | 247° |
| 2026-04-18 03:51 | 49.90772 | 6.29058 | 27341 ft | 432 kts | 246° |
| 2026-04-18 03:51 | 49.89523 | 6.24808 | 27631 ft | 434 kts | 247° |
| 2026-04-18 03:52 | 49.88293 | 6.20519 | 27910 ft | 436 kts | 247° |
| 2026-04-18 03:52 | 49.87082 | 6.16211 | 28184 ft | 437 kts | 247° |
| 2026-04-18 03:52 | 49.85696 | 6.12009 | 28438 ft | 439 kts | 240° |
| 2026-04-18 03:52 | 49.84051 | 6.08008 | 28697 ft | 441 kts | 237° |
| 2026-04-18 03:53 | 49.82283 | 6.04111 | 28978 ft | 443 kts | 236° |
| 2026-04-18 03:53 | 49.80473 | 6.00249 | 29215 ft | 445 kts | 235° |
| 2026-04-18 03:53 | 49.78649 | 5.96370 | 29479 ft | 446 kts | 236° |
| 2026-04-18 03:53 | 49.76827 | 5.92469 | 29733 ft | 448 kts | 236° |
| 2026-04-18 03:54 | 49.75028 | 5.88539 | 29964 ft | 449 kts | 238° |
| 2026-04-18 03:54 | 49.73516 | 5.84387 | 30165 ft | 450 kts | 246° |
| 2026-04-18 03:54 | 49.71273 | 5.75317 | 30205 ft | 455 kts | 252° |
| 2026-04-18 03:55 | 49.69261 | 5.66003 | 30206 ft | 459 kts | 251° |
| 2026-04-18 03:55 | 49.67161 | 5.56651 | 30209 ft | 462 kts | 251° |
| 2026-04-18 03:56 | 49.64988 | 5.47282 | 30207 ft | 465 kts | 250° |
| 2026-04-18 03:56 | 49.62788 | 5.37879 | 30212 ft | 467 kts | 251° |
| 2026-04-18 03:57 | 49.59681 | 5.23632 | 30204 ft | 468 kts | 252° |
| 2026-04-18 03:58 | 49.57852 | 5.13992 | 30203 ft | 469 kts | 255° |
| 2026-04-18 03:58 | 49.56160 | 5.04297 | 30202 ft | 469 kts | 255° |
| 2026-04-18 03:59 | 49.54462 | 4.94603 | 30199 ft | 469 kts | 255° |
| 2026-04-18 03:59 | 49.52741 | 4.84931 | 30205 ft | 468 kts | 255° |
| 2026-04-18 04:00 | 49.51021 | 4.75348 | 30200 ft | 468 kts | 255° |
| 2026-04-18 04:00 | 49.49280 | 4.65706 | 30204 ft | 468 kts | 255° |
| 2026-04-18 04:01 | 49.47531 | 4.56072 | 30200 ft | 468 kts | 255° |
| 2026-04-18 04:01 | 49.45775 | 4.46447 | 30201 ft | 468 kts | 255° |
| 2026-04-18 04:02 | 49.44014 | 4.36841 | 30188 ft | 466 kts | 255° |
| 2026-04-18 04:02 | 49.42246 | 4.27253 | 30198 ft | 467 kts | 255° |
| 2026-04-18 04:03 | 49.40470 | 4.17669 | 30201 ft | 467 kts | 255° |
| 2026-04-18 04:03 | 49.38686 | 4.08091 | 30196 ft | 467 kts | 255° |
| 2026-04-18 04:04 | 49.36901 | 3.98519 | 30198 ft | 467 kts | 255° |
| 2026-04-18 04:04 | 49.35360 | 3.88841 | 30196 ft | 467 kts | 258° |
| 2026-04-18 04:05 | 49.34211 | 3.80755 | 30195 ft | 467 kts | 258° |
| 2026-04-18 04:05 | 49.32843 | 3.71021 | 30195 ft | 467 kts | 258° |
| 2026-04-18 04:06 | 49.31457 | 3.61308 | 30190 ft | 467 kts | 258° |
| 2026-04-18 04:06 | 49.30053 | 3.51593 | 30198 ft | 467 kts | 257° |
| 2026-04-18 04:07 | 49.28640 | 3.41892 | 30197 ft | 466 kts | 257° |
| 2026-04-18 04:07 | 49.27220 | 3.32199 | 30195 ft | 466 kts | 257° |
| 2026-04-18 04:08 | 49.25791 | 3.22509 | 30175 ft | 466 kts | 257° |
| 2026-04-18 04:08 | 49.24355 | 3.12829 | 30192 ft | 467 kts | 257° |
| 2026-04-18 04:09 | 49.22912 | 3.03165 | 30195 ft | 465 kts | 257° |
| 2026-04-18 04:09 | 49.21466 | 2.93533 | 30198 ft | 464 kts | 257° |
| 2026-04-18 04:10 | 49.20012 | 2.83914 | 30195 ft | 464 kts | 257° |
| 2026-04-18 04:10 | 49.18547 | 2.74301 | 30189 ft | 464 kts | 257° |
| 2026-04-18 04:11 | 49.17035 | 2.64710 | 30211 ft | 464 kts | 256° |
| 2026-04-18 04:11 | 49.15542 | 2.55186 | 30193 ft | 459 kts | 256° |
| 2026-04-18 04:12 | 49.14076 | 2.45760 | 30184 ft | 459 kts | 257° |
| 2026-04-18 04:12 | 49.12700 | 2.36240 | 30200 ft | 459 kts | 260° |
| 2026-04-18 04:13 | 49.11748 | 2.26588 | 30189 ft | 460 kts | 262° |
| 2026-04-18 04:13 | 49.10900 | 2.16931 | 30183 ft | 456 kts | 262° |
| 2026-04-18 04:14 | 49.10026 | 2.07404 | 30181 ft | 451 kts | 259° |
| 2026-04-18 04:14 | 49.08241 | 1.98272 | 30185 ft | 450 kts | 247° |
| 2026-04-18 04:15 | 49.05582 | 1.89623 | 30180 ft | 451 kts | 245° |
| 2026-04-18 04:15 | 49.02855 | 1.80977 | 30175 ft | 453 kts | 245° |
| 2026-04-18 04:16 | 49.00195 | 1.72270 | 30177 ft | 451 kts | 246° |
| 2026-04-18 04:16 | 48.97594 | 1.63646 | 30176 ft | 447 kts | 246° |
| 2026-04-18 04:17 | 48.94995 | 1.55035 | 30181 ft | 447 kts | 246° |
| 2026-04-18 04:17 | 48.92390 | 1.46444 | 30181 ft | 447 kts | 246° |
| 2026-04-18 04:18 | 48.89778 | 1.37861 | 30182 ft | 447 kts | 246° |
| 2026-04-18 04:18 | 48.87159 | 1.29289 | 30197 ft | 446 kts | 246° |
| 2026-04-18 04:19 | 48.84561 | 1.20816 | 30181 ft | 442 kts | 246° |
| 2026-04-18 04:19 | 48.81964 | 1.12374 | 30180 ft | 441 kts | 246° |
| 2026-04-18 04:20 | 48.79359 | 1.03932 | 30185 ft | 441 kts | 246° |
| 2026-04-18 04:20 | 48.76749 | 0.95505 | 30183 ft | 441 kts | 246° |
| 2026-04-18 04:21 | 48.73899 | 0.87343 | 30187 ft | 442 kts | 241° |
| 2026-04-18 04:21 | 48.70694 | 0.79428 | 30188 ft | 440 kts | 239° |
| 2026-04-18 04:22 | 48.67472 | 0.71560 | 30189 ft | 440 kts | 240° |
| 2026-04-18 04:22 | 48.64274 | 0.63678 | 30170 ft | 440 kts | 240° |
| 2026-04-18 04:23 | 48.61078 | 0.55782 | 30186 ft | 441 kts | 240° |
| 2026-04-18 04:23 | 48.57871 | 0.47873 | 30190 ft | 442 kts | 240° |
| 2026-04-18 04:24 | 48.54656 | 0.39968 | 30192 ft | 441 kts | 240° |
| 2026-04-18 04:24 | 48.51445 | 0.32099 | 30190 ft | 440 kts | 240° |
| 2026-04-18 04:25 | 48.48228 | 0.24239 | 30190 ft | 440 kts | 240° |
| 2026-04-18 04:25 | 48.45007 | 0.16391 | 30187 ft | 440 kts | 239° |
| 2026-04-18 04:26 | 48.41778 | 0.08548 | 30180 ft | 441 kts | 240° |
| 2026-04-18 04:26 | 48.38564 | 0.00763 | 30182 ft | 441 kts | 240° |
| 2026-04-18 04:27 | 48.35104 | -0.06854 | 30188 ft | 441 kts | 235° |
| 2026-04-18 04:27 | 48.31437 | -0.14239 | 30186 ft | 441 kts | 235° |
| 2026-04-18 04:28 | 48.27758 | -0.21597 | 30177 ft | 440 kts | 233° |
| 2026-04-18 04:28 | 48.23468 | -0.28201 | 30182 ft | 444 kts | 224° |
| 2026-04-18 04:29 | 48.18735 | -0.34160 | 30175 ft | 445 kts | 223° |
| 2026-04-18 04:29 | 48.13965 | -0.40108 | 30178 ft | 446 kts | 223° |
| 2026-04-18 04:30 | 48.09224 | -0.46107 | 30175 ft | 446 kts | 224° |
| 2026-04-18 04:30 | 48.04496 | -0.52120 | 30176 ft | 446 kts | 224° |
| 2026-04-18 04:31 | 47.99769 | -0.58125 | 30180 ft | 446 kts | 224° |
| 2026-04-18 04:31 | 47.95027 | -0.64132 | 30186 ft | 448 kts | 224° |
| 2026-04-18 04:32 | 47.90383 | -0.70005 | 30187 ft | 448 kts | 224° |
| 2026-04-18 04:32 | 47.85658 | -0.75965 | 30186 ft | 448 kts | 224° |
| 2026-04-18 04:33 | 47.80893 | -0.81955 | 30181 ft | 448 kts | 224° |
| 2026-04-18 04:33 | 47.76137 | -0.87920 | 30190 ft | 448 kts | 223° |
| 2026-04-18 04:34 | 47.71374 | -0.93877 | 30187 ft | 447 kts | 223° |
| 2026-04-18 04:34 | 47.66607 | -0.99825 | 30183 ft | 448 kts | 223° |
| 2026-04-18 04:35 | 47.61831 | -1.05754 | 30196 ft | 448 kts | 223° |
| 2026-04-18 04:35 | 47.57038 | -1.11650 | 30185 ft | 448 kts | 223° |
| 2026-04-18 04:36 | 47.52278 | -1.17521 | 30204 ft | 449 kts | 223° |
| 2026-04-18 04:36 | 47.47481 | -1.23443 | 30200 ft | 449 kts | 223° |
| 2026-04-18 04:37 | 47.42688 | -1.29349 | 30209 ft | 448 kts | 223° |
| 2026-04-18 04:37 | 47.37904 | -1.35232 | 30208 ft | 447 kts | 223° |
| 2026-04-18 04:38 | 47.33114 | -1.41107 | 30207 ft | 448 kts | 223° |
| 2026-04-18 04:38 | 47.28307 | -1.46989 | 30207 ft | 450 kts | 223° |
| 2026-04-18 04:39 | 47.23516 | -1.52835 | 30209 ft | 450 kts | 223° |
| 2026-04-18 04:39 | 47.18693 | -1.58706 | 30211 ft | 450 kts | 223° |
| 2026-04-18 04:40 | 47.13884 | -1.64592 | 30209 ft | 450 kts | 225° |
| 2026-04-18 04:40 | 47.09673 | -1.71331 | 30213 ft | 448 kts | 233° |
| 2026-04-18 04:41 | 47.05822 | -1.78510 | 30213 ft | 448 kts | 234° |
| 2026-04-18 04:41 | 47.01964 | -1.85686 | 30212 ft | 448 kts | 233° |
| 2026-04-18 04:42 | 46.98064 | -1.92808 | 30207 ft | 448 kts | 233° |
| 2026-04-18 04:42 | 46.94143 | -1.99905 | 30196 ft | 448 kts | 232° |
| 2026-04-18 04:43 | 46.90211 | -2.06998 | 30212 ft | 449 kts | 233° |
| 2026-04-18 04:43 | 46.86283 | -2.14067 | 30209 ft | 448 kts | 233° |
| 2026-04-18 04:44 | 46.82352 | -2.21125 | 30211 ft | 448 kts | 233° |
| 2026-04-18 04:44 | 46.78420 | -2.28167 | 30214 ft | 448 kts | 233° |
| 2026-04-18 04:45 | 46.74480 | -2.35205 | 30216 ft | 448 kts | 233° |
| 2026-04-18 04:45 | 46.70558 | -2.42192 | 30214 ft | 448 kts | 233° |
| 2026-04-18 04:46 | 46.66618 | -2.49195 | 30217 ft | 446 kts | 233° |
| 2026-04-18 04:46 | 46.62679 | -2.56177 | 30219 ft | 446 kts | 233° |
| 2026-04-18 04:47 | 46.58730 | -2.63122 | 30226 ft | 446 kts | 232° |
| 2026-04-18 04:47 | 46.54760 | -2.70057 | 30225 ft | 446 kts | 232° |
| 2026-04-18 04:48 | 46.50801 | -2.76997 | 30221 ft | 447 kts | 232° |
| 2026-04-18 04:48 | 46.46835 | -2.83954 | 30241 ft | 447 kts | 232° |
| 2026-04-18 04:49 | 46.42874 | -2.90888 | 30231 ft | 446 kts | 232° |
| 2026-04-18 04:49 | 46.38909 | -2.97812 | 30230 ft | 446 kts | 232° |
| 2026-04-18 04:50 | 46.34939 | -3.04726 | 30232 ft | 446 kts | 232° |
| 2026-04-18 04:50 | 46.30965 | -3.11630 | 30227 ft | 447 kts | 232° |
| 2026-04-18 04:51 | 46.26980 | -3.18537 | 30231 ft | 448 kts | 232° |
| 2026-04-18 04:51 | 46.22990 | -3.25432 | 30237 ft | 447 kts | 232° |
| 2026-04-18 04:52 | 46.19001 | -3.32311 | 30238 ft | 447 kts | 232° |
| 2026-04-18 04:52 | 46.15012 | -3.39171 | 30238 ft | 447 kts | 232° |
| 2026-04-18 04:53 | 46.11014 | -3.46030 | 30212 ft | 447 kts | 232° |
| 2026-04-18 04:53 | 46.07005 | -3.52882 | 30234 ft | 448 kts | 231° |
| 2026-04-18 04:54 | 46.02955 | -3.59724 | 30247 ft | 447 kts | 231° |
| 2026-04-18 04:54 | 45.98931 | -3.66540 | 30242 ft | 447 kts | 232° |
| 2026-04-18 04:55 | 45.94913 | -3.73357 | 30239 ft | 447 kts | 232° |
| 2026-04-18 04:55 | 45.91572 | -3.79021 | 30241 ft | 447 kts | 232° |
| 2026-04-18 04:56 | 45.85530 | -3.89234 | 30237 ft | 448 kts | 231° |
| 2026-04-18 04:56 | 45.81483 | -3.96052 | 30251 ft | 449 kts | 231° |
| 2026-04-18 04:57 | 45.77438 | -4.02850 | 30243 ft | 448 kts | 231° |
| 2026-04-18 04:57 | 45.73392 | -4.09634 | 30245 ft | 448 kts | 231° |
| 2026-04-18 04:58 | 45.69368 | -4.16364 | 30226 ft | 448 kts | 231° |
| 2026-04-18 04:58 | 45.65308 | -4.23139 | 30240 ft | 449 kts | 231° |
| 2026-04-18 04:59 | 45.61234 | -4.29919 | 30244 ft | 450 kts | 231° |
| 2026-04-18 04:59 | 45.57152 | -4.36696 | 30247 ft | 449 kts | 231° |
| 2026-04-18 05:00 | 45.53068 | -4.43453 | 30242 ft | 450 kts | 231° |
| 2026-04-18 05:00 | 45.48959 | -4.50175 | 30225 ft | 449 kts | 231° |
| 2026-04-18 05:01 | 45.44851 | -4.56908 | 30245 ft | 451 kts | 231° |
| 2026-04-18 05:01 | 45.40737 | -4.63664 | 30246 ft | 451 kts | 231° |
| 2026-04-18 05:02 | 45.36627 | -4.70406 | 30238 ft | 450 kts | 231° |
| 2026-04-18 05:02 | 45.32519 | -4.77128 | 30238 ft | 450 kts | 231° |
| 2026-04-18 05:03 | 45.28435 | -4.83796 | 30244 ft | 450 kts | 231° |
| 2026-04-18 05:03 | 45.24313 | -4.90508 | 30249 ft | 452 kts | 231° |
| 2026-04-18 05:04 | 45.20169 | -4.97241 | 30249 ft | 453 kts | 231° |
| 2026-04-18 05:04 | 45.16022 | -5.03959 | 30250 ft | 452 kts | 231° |
| 2026-04-18 05:05 | 45.11877 | -5.10654 | 30247 ft | 452 kts | 230° |
| 2026-04-18 05:05 | 45.07734 | -5.17331 | 30250 ft | 452 kts | 230° |
| 2026-04-18 05:06 | 45.03578 | -5.24016 | 30252 ft | 453 kts | 230° |
| 2026-04-18 05:06 | 44.99406 | -5.30710 | 30252 ft | 453 kts | 230° |
| 2026-04-18 05:07 | 44.95220 | -5.37358 | 30255 ft | 453 kts | 230° |
| 2026-04-18 05:07 | 44.91053 | -5.43968 | 30253 ft | 453 kts | 230° |
| 2026-04-18 05:08 | 44.86876 | -5.50612 | 30250 ft | 453 kts | 230° |
| 2026-04-18 05:08 | 44.82692 | -5.57263 | 30250 ft | 454 kts | 230° |
| 2026-04-18 05:09 | 44.78490 | -5.63929 | 30255 ft | 455 kts | 230° |
| 2026-04-18 05:09 | 44.74291 | -5.70573 | 30255 ft | 455 kts | 230° |
| 2026-04-18 05:10 | 44.70083 | -5.77216 | 30250 ft | 455 kts | 230° |
| 2026-04-18 05:10 | 44.65876 | -5.83855 | 30252 ft | 455 kts | 230° |
| 2026-04-18 05:11 | 44.61655 | -5.90488 | 30251 ft | 455 kts | 230° |
| 2026-04-18 05:11 | 44.57417 | -5.97097 | 30250 ft | 455 kts | 230° |
| 2026-04-18 05:12 | 44.53184 | -6.03680 | 30250 ft | 455 kts | 230° |
| 2026-04-18 05:12 | 44.48972 | -6.10219 | 30259 ft | 455 kts | 230° |
| 2026-04-18 05:13 | 44.44735 | -6.16782 | 30231 ft | 454 kts | 230° |
| 2026-04-18 05:13 | 44.40491 | -6.23342 | 30248 ft | 455 kts | 230° |
| 2026-04-18 05:14 | 44.36231 | -6.29910 | 30246 ft | 455 kts | 230° |
| 2026-04-18 05:14 | 44.31972 | -6.36461 | 30247 ft | 455 kts | 229° |
| 2026-04-18 05:15 | 44.27709 | -6.43003 | 30250 ft | 455 kts | 229° |
| 2026-04-18 05:15 | 44.23443 | -6.49536 | 30243 ft | 455 kts | 229° |
| 2026-04-18 05:16 | 44.19174 | -6.56056 | 30244 ft | 456 kts | 229° |
| 2026-04-18 05:16 | 44.14894 | -6.62578 | 30244 ft | 456 kts | 229° |
| 2026-04-18 05:17 | 44.10609 | -6.69089 | 30239 ft | 456 kts | 229° |
| 2026-04-18 05:17 | 44.06310 | -6.75576 | 30242 ft | 456 kts | 229° |
| 2026-04-18 05:18 | 44.02049 | -6.82025 | 30221 ft | 456 kts | 229° |
| 2026-04-18 05:18 | 43.97759 | -6.88529 | 30238 ft | 457 kts | 229° |
| 2026-04-18 05:19 | 43.93462 | -6.95033 | 30233 ft | 457 kts | 229° |
| 2026-04-18 05:19 | 43.89161 | -7.01529 | 30235 ft | 457 kts | 229° |
| 2026-04-18 05:20 | 43.84852 | -7.08022 | 30231 ft | 457 kts | 229° |
| 2026-04-18 05:20 | 43.80544 | -7.14497 | 30217 ft | 457 kts | 229° |
| 2026-04-18 05:21 | 43.76227 | -7.20970 | 30232 ft | 458 kts | 229° |
| 2026-04-18 05:21 | 43.71908 | -7.27434 | 30225 ft | 457 kts | 229° |
| 2026-04-18 05:22 | 43.67618 | -7.33838 | 30224 ft | 457 kts | 229° |
| 2026-04-18 05:22 | 43.63294 | -7.40278 | 30216 ft | 457 kts | 229° |
| 2026-04-18 05:23 | 43.58968 | -7.46707 | 30218 ft | 457 kts | 229° |
| 2026-04-18 05:23 | 43.54634 | -7.53129 | 30212 ft | 458 kts | 229° |
| 2026-04-18 05:24 | 43.50262 | -7.59544 | 30219 ft | 458 kts | 229° |
| 2026-04-18 05:24 | 43.45910 | -7.65930 | 30205 ft | 456 kts | 229° |
| 2026-04-18 05:25 | 43.41572 | -7.72310 | 30201 ft | 456 kts | 229° |
| 2026-04-18 05:25 | 43.37230 | -7.78690 | 30202 ft | 456 kts | 229° |
| 2026-04-18 05:26 | 43.32891 | -7.85052 | 30197 ft | 457 kts | 229° |
| 2026-04-18 05:26 | 43.28564 | -7.91382 | 30196 ft | 457 kts | 229° |
| 2026-04-18 05:27 | 43.24206 | -7.97742 | 30197 ft | 457 kts | 229° |
| 2026-04-18 05:27 | 43.19847 | -8.04089 | 30199 ft | 457 kts | 229° |
| 2026-04-18 05:28 | 43.15477 | -8.10439 | 30198 ft | 458 kts | 229° |
| 2026-04-18 05:28 | 43.11100 | -8.16783 | 30194 ft | 459 kts | 229° |
| 2026-04-18 05:29 | 43.06732 | -8.23101 | 30183 ft | 460 kts | 228° |
| 2026-04-18 05:29 | 43.02336 | -8.29445 | 30182 ft | 460 kts | 228° |
| 2026-04-18 05:30 | 42.97929 | -8.35790 | 30191 ft | 459 kts | 228° |
| 2026-04-18 05:30 | 42.93312 | -8.41784 | 30184 ft | 459 kts | 220° |
| 2026-04-18 05:31 | 42.88114 | -8.46877 | 30173 ft | 461 kts | 217° |
| 2026-04-18 05:31 | 42.82802 | -8.51798 | 30165 ft | 462 kts | 217° |
| 2026-04-18 05:32 | 42.77549 | -8.56735 | 30159 ft | 461 kts | 218° |
| 2026-04-18 05:32 | 42.72286 | -8.61733 | 30161 ft | 461 kts | 218° |
| 2026-04-18 05:33 | 42.67021 | -8.66737 | 30140 ft | 462 kts | 218° |
| 2026-04-18 05:33 | 42.61743 | -8.71743 | 30158 ft | 464 kts | 218° |
| 2026-04-18 05:34 | 42.56465 | -8.76736 | 30148 ft | 462 kts | 218° |
| 2026-04-18 05:34 | 42.51197 | -8.81708 | 30136 ft | 462 kts | 218° |
| 2026-04-18 05:35 | 42.45923 | -8.86676 | 30136 ft | 462 kts | 218° |
| 2026-04-18 05:35 | 42.40637 | -8.91644 | 30133 ft | 462 kts | 218° |
| 2026-04-18 05:36 | 42.35393 | -8.96563 | 30131 ft | 462 kts | 218° |
| 2026-04-18 05:36 | 42.30113 | -9.01505 | 30127 ft | 462 kts | 218° |
| 2026-04-18 05:37 | 42.24818 | -9.06440 | 30109 ft | 462 kts | 217° |
| 2026-04-18 05:37 | 42.19507 | -9.11357 | 30132 ft | 464 kts | 218° |
| 2026-04-18 05:38 | 42.14185 | -9.16293 | 30138 ft | 465 kts | 218° |
| 2026-04-18 05:38 | 42.08896 | -9.21201 | 30132 ft | 465 kts | 218° |
| 2026-04-18 05:39 | 42.03571 | -9.26135 | 30129 ft | 465 kts | 218° |
| 2026-04-18 05:39 | 41.98230 | -9.31072 | 30126 ft | 466 kts | 218° |
| 2026-04-18 05:40 | 41.92881 | -9.36004 | 30129 ft | 466 kts | 217° |
| 2026-04-18 05:40 | 41.87518 | -9.40911 | 30129 ft | 466 kts | 217° |
| 2026-04-18 05:41 | 41.82158 | -9.45806 | 30128 ft | 466 kts | 217° |
| 2026-04-18 05:41 | 41.76786 | -9.50710 | 30124 ft | 468 kts | 218° |
| 2026-04-18 05:42 | 41.71386 | -9.55633 | 30130 ft | 470 kts | 217° |
| 2026-04-18 05:42 | 41.65974 | -9.60556 | 30129 ft | 470 kts | 217° |
| 2026-04-18 05:43 | 41.60594 | -9.65438 | 30127 ft | 470 kts | 217° |
| 2026-04-18 05:43 | 41.55177 | -9.70345 | 30127 ft | 471 kts | 217° |
| 2026-04-18 05:44 | 41.49755 | -9.75246 | 30129 ft | 471 kts | 217° |
| 2026-04-18 05:44 | 41.44332 | -9.80137 | 30129 ft | 471 kts | 217° |
| 2026-04-18 05:45 | 41.38905 | -9.85023 | 30133 ft | 472 kts | 217° |
| 2026-04-18 05:45 | 41.33448 | -9.89926 | 30127 ft | 473 kts | 217° |
| 2026-04-18 05:46 | 41.27985 | -9.94824 | 30132 ft | 474 kts | 217° |
| 2026-04-18 05:46 | 41.22515 | -9.99706 | 30135 ft | 474 kts | 217° |
| 2026-04-18 05:47 | 41.17038 | -10.04565 | 30135 ft | 474 kts | 217° |
| 2026-04-18 05:47 | 41.11563 | -10.09431 | 30120 ft | 474 kts | 217° |
| 2026-04-18 05:48 | 41.06084 | -10.14301 | 30137 ft | 474 kts | 217° |
| 2026-04-18 05:48 | 41.01529 | -10.18344 | 30137 ft | 474 kts | 217° |
| 2026-04-18 05:49 | 40.95144 | -10.24000 | 30139 ft | 476 kts | 217° |
| 2026-04-18 05:49 | 40.90538 | -10.28071 | 30140 ft | 476 kts | 217° |
| 2026-04-18 05:50 | 40.85031 | -10.32930 | 30141 ft | 476 kts | 217° |
| 2026-04-18 05:50 | 40.79517 | -10.37785 | 30138 ft | 476 kts | 217° |
| 2026-04-18 05:51 | 40.74000 | -10.42632 | 30143 ft | 477 kts | 217° |
| 2026-04-18 05:51 | 40.68476 | -10.47476 | 30144 ft | 477 kts | 217° |
| 2026-04-18 05:52 | 40.62957 | -10.52305 | 30131 ft | 477 kts | 217° |
| 2026-04-18 05:52 | 40.57421 | -10.57141 | 30130 ft | 478 kts | 216° |
| 2026-04-18 05:53 | 40.51870 | -10.61960 | 30137 ft | 478 kts | 216° |
| 2026-04-18 05:53 | 40.46311 | -10.66768 | 30157 ft | 478 kts | 216° |
| 2026-04-18 05:54 | 40.40793 | -10.71549 | 30139 ft | 478 kts | 216° |
| 2026-04-18 05:54 | 40.35232 | -10.76367 | 30146 ft | 479 kts | 216° |
| 2026-04-18 05:55 | 40.29666 | -10.81180 | 30144 ft | 479 kts | 216° |
| 2026-04-18 05:55 | 40.24098 | -10.85985 | 30140 ft | 479 kts | 216° |
| 2026-04-18 05:56 | 40.18528 | -10.90780 | 30151 ft | 479 kts | 216° |
| 2026-04-18 05:56 | 40.12992 | -10.95538 | 30149 ft | 479 kts | 216° |
| 2026-04-18 05:57 | 40.04646 | -11.02692 | 30157 ft | 479 kts | 216° |
| 2026-04-18 05:58 | 39.99071 | -11.07459 | 30155 ft | 479 kts | 216° |
| 2026-04-18 05:58 | 39.93499 | -11.12215 | 30142 ft | 479 kts | 216° |
| 2026-04-18 05:59 | 39.87923 | -11.16964 | 30152 ft | 479 kts | 216° |
| 2026-04-18 05:59 | 39.82333 | -11.21699 | 30155 ft | 479 kts | 216° |
| 2026-04-18 06:00 | 39.76769 | -11.26394 | 30151 ft | 479 kts | 216° |
| 2026-04-18 06:00 | 39.71188 | -11.31110 | 30157 ft | 479 kts | 216° |
| 2026-04-18 06:01 | 39.65595 | -11.35836 | 30157 ft | 479 kts | 216° |
| 2026-04-18 06:01 | 39.61856 | -11.38991 | 30154 ft | 480 kts | 216° |